sensor_id;sensor_type;location;lat;lon;timestamp;P1;durP1;ratioP1;P2;durP2;ratioP2
20080;SDS011;10200;49.232;9.222;2023-02-15T00:01:10;20.30;;;13.07;;
20080;SDS011;10200;49.232;9.222;2023-02-15T00:03:36;19.67;;;12.63;;
20080;SDS011;10200;49.232;9.222;2023-02-15T00:06:02;20.50;;;12.57;;
20080;SDS011;10200;49.232;9.222;2023-02-15T00:08:29;19.97;;;13.33;;
20080;SDS011;10200;49.232;9.222;2023-02-15T00:13:33;21.07;;;12.43;;
20080;SDS011;10200;49.232;9.222;2023-02-15T00:16:01;20.40;;;12.97;;
20080;SDS011;10200;49.232;9.222;2023-02-15T00:18:28;24.60;;;14.57;;
20080;SDS011;10200;49.232;9.222;2023-02-15T00:20:54;21.73;;;13.80;;
20080;SDS011;10200;49.232;9.222;2023-02-15T00:23:20;25.77;;;14.87;;
20080;SDS011;10200;49.232;9.222;2023-02-15T00:25:45;22.07;;;12.83;;
20080;SDS011;10200;49.232;9.222;2023-02-15T00:28:11;19.40;;;12.27;;
20080;SDS011;10200;49.232;9.222;2023-02-15T00:30:37;20.60;;;13.13;;
20080;SDS011;10200;49.232;9.222;2023-02-15T00:33:02;19.43;;;12.53;;
20080;SDS011;10200;49.232;9.222;2023-02-15T00:35:28;23.27;;;13.27;;
20080;SDS011;10200;49.232;9.222;2023-02-15T00:37:53;21.23;;;13.27;;
20080;SDS011;10200;49.232;9.222;2023-02-15T00:40:20;19.37;;;12.40;;
20080;SDS011;10200;49.232;9.222;2023-02-15T00:42:46;23.20;;;13.80;;
20080;SDS011;10200;49.232;9.222;2023-02-15T00:45:11;20.33;;;13.27;;
20080;SDS011;10200;49.232;9.222;2023-02-15T00:47:37;21.73;;;12.80;;
20080;SDS011;10200;49.232;9.222;2023-02-15T00:50:03;20.40;;;12.83;;
20080;SDS011;10200;49.232;9.222;2023-02-15T00:52:29;19.33;;;12.33;;
20080;SDS011;10200;49.232;9.222;2023-02-15T00:54:54;19.77;;;11.97;;
20080;SDS011;10200;49.232;9.222;2023-02-15T00:57:20;20.13;;;13.03;;
20080;SDS011;10200;49.232;9.222;2023-02-15T00:59:45;20.97;;;12.57;;
20080;SDS011;10200;49.232;9.222;2023-02-15T01:02:11;20.30;;;12.67;;
20080;SDS011;10200;49.232;9.222;2023-02-15T01:04:36;21.03;;;13.10;;
20080;SDS011;10200;49.232;9.222;2023-02-15T01:07:02;20.80;;;13.50;;
20080;SDS011;10200;49.232;9.222;2023-02-15T01:09:28;20.30;;;12.23;;
20080;SDS011;10200;49.232;9.222;2023-02-15T01:11:54;20.97;;;12.53;;
20080;SDS011;10200;49.232;9.222;2023-02-15T01:14:20;19.40;;;12.23;;
20080;SDS011;10200;49.232;9.222;2023-02-15T01:16:46;21.27;;;12.67;;
20080;SDS011;10200;49.232;9.222;2023-02-15T01:19:11;21.83;;;12.70;;
20080;SDS011;10200;49.232;9.222;2023-02-15T01:21:37;21.73;;;14.03;;
20080;SDS011;10200;49.232;9.222;2023-02-15T01:24:05;20.40;;;12.57;;
20080;SDS011;10200;49.232;9.222;2023-02-15T01:26:39;20.37;;;12.53;;
20080;SDS011;10200;49.232;9.222;2023-02-15T01:29:04;22.70;;;12.47;;
20080;SDS011;10200;49.232;9.222;2023-02-15T01:31:30;21.70;;;13.17;;
20080;SDS011;10200;49.232;9.222;2023-02-15T01:33:55;21.47;;;12.83;;
20080;SDS011;10200;49.232;9.222;2023-02-15T01:36:21;22.80;;;13.30;;
20080;SDS011;10200;49.232;9.222;2023-02-15T01:38:47;20.57;;;12.73;;
20080;SDS011;10200;49.232;9.222;2023-02-15T01:41:14;22.67;;;13.43;;
20080;SDS011;10200;49.232;9.222;2023-02-15T01:43:58;22.43;;;13.13;;
20080;SDS011;10200;49.232;9.222;2023-02-15T01:46:27;22.67;;;13.60;;
20080;SDS011;10200;49.232;9.222;2023-02-15T01:49:05;22.63;;;15.20;;
20080;SDS011;10200;49.232;9.222;2023-02-15T01:51:36;23.03;;;14.43;;
20080;SDS011;10200;49.232;9.222;2023-02-15T01:54:08;22.47;;;12.93;;
20080;SDS011;10200;49.232;9.222;2023-02-15T01:56:45;21.23;;;13.27;;
20080;SDS011;10200;49.232;9.222;2023-02-15T01:59:13;21.73;;;11.87;;
20080;SDS011;10200;49.232;9.222;2023-02-15T02:01:41;19.67;;;12.50;;
20080;SDS011;10200;49.232;9.222;2023-02-15T02:04:10;20.97;;;12.80;;
20080;SDS011;10200;49.232;9.222;2023-02-15T02:06:42;20.33;;;12.20;;
20080;SDS011;10200;49.232;9.222;2023-02-15T02:09:11;19.73;;;12.60;;
20080;SDS011;10200;49.232;9.222;2023-02-15T02:11:38;21.27;;;13.60;;
20080;SDS011;10200;49.232;9.222;2023-02-15T02:14:05;19.83;;;12.57;;
20080;SDS011;10200;49.232;9.222;2023-02-15T02:16:38;22.63;;;13.30;;
20080;SDS011;10200;49.232;9.222;2023-02-15T02:36:14;22.47;;;13.00;;
20080;SDS011;10200;49.232;9.222;2023-02-15T02:44:13;21.23;;;13.07;;
20080;SDS011;10200;49.232;9.222;2023-02-15T02:46:51;21.00;;;12.23;;
20080;SDS011;10200;49.232;9.222;2023-02-15T02:49:30;18.27;;;11.83;;
20080;SDS011;10200;49.232;9.222;2023-02-15T02:52:52;24.00;;;13.23;;
20080;SDS011;10200;49.232;9.222;2023-02-15T02:55:11;20.93;;;12.33;;
20080;SDS011;10200;49.232;9.222;2023-02-15T02:57:40;21.03;;;13.23;;
20080;SDS011;10200;49.232;9.222;2023-02-15T03:00:12;23.60;;;14.17;;
20080;SDS011;10200;49.232;9.222;2023-02-15T03:02:41;19.80;;;12.27;;
20080;SDS011;10200;49.232;9.222;2023-02-15T03:05:11;23.43;;;13.93;;
20080;SDS011;10200;49.232;9.222;2023-02-15T03:07:40;19.53;;;12.90;;
20080;SDS011;10200;49.232;9.222;2023-02-15T03:10:08;20.27;;;12.63;;
20080;SDS011;10200;49.232;9.222;2023-02-15T03:12:35;20.67;;;13.43;;
20080;SDS011;10200;49.232;9.222;2023-02-15T03:15:05;21.60;;;13.77;;
20080;SDS011;10200;49.232;9.222;2023-02-15T03:17:42;21.37;;;12.87;;
20080;SDS011;10200;49.232;9.222;2023-02-15T03:20:14;24.50;;;13.67;;
20080;SDS011;10200;49.232;9.222;2023-02-15T03:22:48;21.37;;;12.83;;
20080;SDS011;10200;49.232;9.222;2023-02-15T03:25:22;20.73;;;13.17;;
20080;SDS011;10200;49.232;9.222;2023-02-15T03:27:58;20.73;;;13.07;;
20080;SDS011;10200;49.232;9.222;2023-02-15T03:30:28;21.80;;;13.17;;
20080;SDS011;10200;49.232;9.222;2023-02-15T03:32:56;23.60;;;14.10;;
20080;SDS011;10200;49.232;9.222;2023-02-15T03:35:25;23.37;;;14.13;;
20080;SDS011;10200;49.232;9.222;2023-02-15T03:37:57;24.07;;;14.40;;
20080;SDS011;10200;49.232;9.222;2023-02-15T03:43:17;21.27;;;13.10;;
20080;SDS011;10200;49.232;9.222;2023-02-15T03:46:13;22.07;;;13.23;;
20080;SDS011;10200;49.232;9.222;2023-02-15T03:49:01;20.50;;;13.13;;
20080;SDS011;10200;49.232;9.222;2023-02-15T03:51:33;22.33;;;13.23;;
20080;SDS011;10200;49.232;9.222;2023-02-15T03:54:13;21.73;;;13.10;;
20080;SDS011;10200;49.232;9.222;2023-02-15T03:57:03;23.40;;;13.93;;
20080;SDS011;10200;49.232;9.222;2023-02-15T03:59:47;21.57;;;13.03;;
20080;SDS011;10200;49.232;9.222;2023-02-15T04:02:37;23.43;;;14.03;;
20080;SDS011;10200;49.232;9.222;2023-02-15T04:05:07;19.93;;;12.33;;
20080;SDS011;10200;49.232;9.222;2023-02-15T04:07:33;19.30;;;12.03;;
20080;SDS011;10200;49.232;9.222;2023-02-15T04:09:58;22.23;;;12.87;;
20080;SDS011;10200;49.232;9.222;2023-02-15T04:12:42;21.23;;;12.67;;
20080;SDS011;10200;49.232;9.222;2023-02-15T04:15:11;21.33;;;12.63;;
20080;SDS011;10200;49.232;9.222;2023-02-15T04:17:56;21.73;;;12.67;;
20080;SDS011;10200;49.232;9.222;2023-02-15T04:20:21;20.47;;;12.33;;
20080;SDS011;10200;49.232;9.222;2023-02-15T04:23:06;20.07;;;12.50;;
20080;SDS011;10200;49.232;9.222;2023-02-15T04:25:52;25.80;;;14.43;;
20080;SDS011;10200;49.232;9.222;2023-02-15T04:28:17;19.83;;;12.77;;
20080;SDS011;10200;49.232;9.222;2023-02-15T04:30:43;23.90;;;13.47;;
20080;SDS011;10200;49.232;9.222;2023-02-15T04:33:08;22.53;;;12.93;;
20080;SDS011;10200;49.232;9.222;2023-02-15T04:35:34;22.63;;;13.67;;
20080;SDS011;10200;49.232;9.222;2023-02-15T04:37:59;22.57;;;13.27;;
20080;SDS011;10200;49.232;9.222;2023-02-15T04:40:25;20.87;;;12.13;;
20080;SDS011;10200;49.232;9.222;2023-02-15T04:42:51;22.33;;;13.67;;
20080;SDS011;10200;49.232;9.222;2023-02-15T04:45:16;18.80;;;12.43;;
20080;SDS011;10200;49.232;9.222;2023-02-15T04:47:42;22.87;;;12.63;;
20080;SDS011;10200;49.232;9.222;2023-02-15T04:50:08;22.43;;;13.67;;
20080;SDS011;10200;49.232;9.222;2023-02-15T04:52:34;19.87;;;11.53;;
20080;SDS011;10200;49.232;9.222;2023-02-15T04:55:00;23.43;;;13.70;;
20080;SDS011;10200;49.232;9.222;2023-02-15T04:57:26;23.87;;;13.23;;
20080;SDS011;10200;49.232;9.222;2023-02-15T04:59:51;18.97;;;12.63;;
20080;SDS011;10200;49.232;9.222;2023-02-15T05:02:17;23.47;;;13.20;;
20080;SDS011;10200;49.232;9.222;2023-02-15T05:04:42;22.87;;;14.07;;
20080;SDS011;10200;49.232;9.222;2023-02-15T05:07:08;19.13;;;12.27;;
20080;SDS011;10200;49.232;9.222;2023-02-15T05:09:34;19.63;;;12.30;;
20080;SDS011;10200;49.232;9.222;2023-02-15T05:11:59;20.07;;;12.87;;
20080;SDS011;10200;49.232;9.222;2023-02-15T05:14:25;19.60;;;12.70;;
20080;SDS011;10200;49.232;9.222;2023-02-15T05:16:50;23.10;;;13.17;;
20080;SDS011;10200;49.232;9.222;2023-02-15T05:19:16;24.13;;;12.90;;
20080;SDS011;10200;49.232;9.222;2023-02-15T05:21:42;21.00;;;12.67;;
20080;SDS011;10200;49.232;9.222;2023-02-15T05:24:07;23.03;;;13.73;;
20080;SDS011;10200;49.232;9.222;2023-02-15T05:26:51;19.87;;;13.13;;
20080;SDS011;10200;49.232;9.222;2023-02-15T05:29:43;23.93;;;13.93;;
20080;SDS011;10200;49.232;9.222;2023-02-15T05:32:08;22.87;;;13.97;;
20080;SDS011;10200;49.232;9.222;2023-02-15T05:34:35;24.57;;;13.90;;
20080;SDS011;10200;49.232;9.222;2023-02-15T05:37:00;21.27;;;13.27;;
20080;SDS011;10200;49.232;9.222;2023-02-15T05:39:26;21.43;;;12.70;;
20080;SDS011;10200;49.232;9.222;2023-02-15T05:41:51;22.00;;;12.97;;
20080;SDS011;10200;49.232;9.222;2023-02-15T05:44:17;21.60;;;13.33;;
20080;SDS011;10200;49.232;9.222;2023-02-15T05:46:43;20.93;;;13.97;;
20080;SDS011;10200;49.232;9.222;2023-02-15T05:49:08;23.13;;;13.23;;
20080;SDS011;10200;49.232;9.222;2023-02-15T05:51:34;19.90;;;13.50;;
20080;SDS011;10200;49.232;9.222;2023-02-15T05:53:59;24.70;;;13.70;;
20080;SDS011;10200;49.232;9.222;2023-02-15T05:56:25;22.67;;;13.70;;
20080;SDS011;10200;49.232;9.222;2023-02-15T05:58:52;23.07;;;13.40;;
20080;SDS011;10200;49.232;9.222;2023-02-15T06:01:18;24.07;;;13.50;;
20080;SDS011;10200;49.232;9.222;2023-02-15T06:03:46;24.23;;;13.47;;
20080;SDS011;10200;49.232;9.222;2023-02-15T06:06:11;28.60;;;14.47;;
20080;SDS011;10200;49.232;9.222;2023-02-15T06:08:37;20.77;;;11.93;;
20080;SDS011;10200;49.232;9.222;2023-02-15T06:11:03;24.20;;;14.00;;
20080;SDS011;10200;49.232;9.222;2023-02-15T06:13:29;21.27;;;13.13;;
20080;SDS011;10200;49.232;9.222;2023-02-15T06:15:55;22.60;;;13.43;;
20080;SDS011;10200;49.232;9.222;2023-02-15T06:18:20;23.20;;;14.17;;
20080;SDS011;10200;49.232;9.222;2023-02-15T06:20:46;22.90;;;14.27;;
20080;SDS011;10200;49.232;9.222;2023-02-15T06:23:12;23.47;;;13.77;;
20080;SDS011;10200;49.232;9.222;2023-02-15T06:25:38;22.13;;;13.43;;
20080;SDS011;10200;49.232;9.222;2023-02-15T06:28:04;21.67;;;13.10;;
20080;SDS011;10200;49.232;9.222;2023-02-15T06:30:29;21.57;;;13.63;;
20080;SDS011;10200;49.232;9.222;2023-02-15T06:32:55;23.60;;;13.60;;
20080;SDS011;10200;49.232;9.222;2023-02-15T06:35:21;21.63;;;13.33;;
20080;SDS011;10200;49.232;9.222;2023-02-15T06:37:47;24.73;;;13.47;;
20080;SDS011;10200;49.232;9.222;2023-02-15T06:40:13;34.47;;;13.17;;
20080;SDS011;10200;49.232;9.222;2023-02-15T06:42:39;21.07;;;13.23;;
20080;SDS011;10200;49.232;9.222;2023-02-15T06:45:06;22.00;;;13.37;;
20080;SDS011;10200;49.232;9.222;2023-02-15T06:47:32;23.93;;;13.93;;
20080;SDS011;10200;49.232;9.222;2023-02-15T06:49:58;21.80;;;13.53;;
20080;SDS011;10200;49.232;9.222;2023-02-15T06:52:24;24.30;;;14.47;;
20080;SDS011;10200;49.232;9.222;2023-02-15T06:54:49;21.33;;;13.20;;
20080;SDS011;10200;49.232;9.222;2023-02-15T06:57:15;26.67;;;14.80;;
20080;SDS011;10200;49.232;9.222;2023-02-15T06:59:41;24.53;;;14.77;;
20080;SDS011;10200;49.232;9.222;2023-02-15T07:02:08;26.80;;;13.07;;
20080;SDS011;10200;49.232;9.222;2023-02-15T07:04:36;21.77;;;14.30;;
20080;SDS011;10200;49.232;9.222;2023-02-15T07:07:01;26.27;;;14.93;;
20080;SDS011;10200;49.232;9.222;2023-02-15T07:09:27;19.83;;;12.73;;
20080;SDS011;10200;49.232;9.222;2023-02-15T07:11:53;26.17;;;15.73;;
20080;SDS011;10200;49.232;9.222;2023-02-15T07:14:37;23.13;;;14.57;;
20080;SDS011;10200;49.232;9.222;2023-02-15T07:17:02;22.73;;;14.17;;
20080;SDS011;10200;49.232;9.222;2023-02-15T07:19:28;23.73;;;15.20;;
20080;SDS011;10200;49.232;9.222;2023-02-15T07:21:53;21.70;;;13.73;;
20080;SDS011;10200;49.232;9.222;2023-02-15T07:24:19;21.13;;;13.40;;
20080;SDS011;10200;49.232;9.222;2023-02-15T07:26:44;23.13;;;13.30;;
20080;SDS011;10200;49.232;9.222;2023-02-15T07:29:10;19.63;;;12.90;;
20080;SDS011;10200;49.232;9.222;2023-02-15T07:31:35;24.60;;;13.23;;
20080;SDS011;10200;49.232;9.222;2023-02-15T07:34:01;21.63;;;12.23;;
20080;SDS011;10200;49.232;9.222;2023-02-15T07:36:26;19.30;;;12.50;;
20080;SDS011;10200;49.232;9.222;2023-02-15T07:38:52;20.57;;;12.63;;
20080;SDS011;10200;49.232;9.222;2023-02-15T07:41:18;26.43;;;14.37;;
20080;SDS011;10200;49.232;9.222;2023-02-15T07:43:44;23.90;;;12.77;;
20080;SDS011;10200;49.232;9.222;2023-02-15T07:46:11;20.67;;;12.13;;
20080;SDS011;10200;49.232;9.222;2023-02-15T07:48:39;23.90;;;13.83;;
20080;SDS011;10200;49.232;9.222;2023-02-15T07:51:07;23.60;;;13.47;;
20080;SDS011;10200;49.232;9.222;2023-02-15T07:53:34;20.23;;;12.63;;
20080;SDS011;10200;49.232;9.222;2023-02-15T07:56:02;20.13;;;13.23;;
20080;SDS011;10200;49.232;9.222;2023-02-15T07:58:33;23.00;;;13.10;;
20080;SDS011;10200;49.232;9.222;2023-02-15T08:03:47;20.27;;;12.67;;
20080;SDS011;10200;49.232;9.222;2023-02-15T08:06:13;26.33;;;14.90;;
20080;SDS011;10200;49.232;9.222;2023-02-15T08:08:39;19.77;;;12.10;;
20080;SDS011;10200;49.232;9.222;2023-02-15T08:18:56;22.03;;;12.67;;
20080;SDS011;10200;49.232;9.222;2023-02-15T08:21:24;19.47;;;12.47;;
20080;SDS011;10200;49.232;9.222;2023-02-15T08:23:50;21.63;;;12.73;;
20080;SDS011;10200;49.232;9.222;2023-02-15T08:26:16;20.77;;;12.27;;
20080;SDS011;10200;49.232;9.222;2023-02-15T08:28:42;22.10;;;13.93;;
20080;SDS011;10200;49.232;9.222;2023-02-15T08:31:09;20.03;;;12.67;;
20080;SDS011;10200;49.232;9.222;2023-02-15T08:33:37;24.37;;;12.90;;
20080;SDS011;10200;49.232;9.222;2023-02-15T08:36:11;22.17;;;13.30;;
20080;SDS011;10200;49.232;9.222;2023-02-15T08:38:39;19.20;;;12.03;;
20080;SDS011;10200;49.232;9.222;2023-02-15T08:41:12;22.57;;;13.40;;
20080;SDS011;10200;49.232;9.222;2023-02-15T08:43:44;22.20;;;12.17;;
20080;SDS011;10200;49.232;9.222;2023-02-15T08:46:12;20.83;;;12.97;;
20080;SDS011;10200;49.232;9.222;2023-02-15T08:48:38;21.07;;;13.40;;
20080;SDS011;10200;49.232;9.222;2023-02-15T08:51:05;23.10;;;13.63;;
20080;SDS011;10200;49.232;9.222;2023-02-15T08:53:39;19.97;;;13.10;;
20080;SDS011;10200;49.232;9.222;2023-02-15T08:56:07;21.40;;;13.33;;
20080;SDS011;10200;49.232;9.222;2023-02-15T08:58:33;22.90;;;13.63;;
20080;SDS011;10200;49.232;9.222;2023-02-15T09:00:59;20.97;;;13.33;;
20080;SDS011;10200;49.232;9.222;2023-02-15T09:03:27;28.37;;;12.87;;
20080;SDS011;10200;49.232;9.222;2023-02-15T09:05:56;23.60;;;14.13;;
20080;SDS011;10200;49.232;9.222;2023-02-15T09:08:26;29.00;;;14.40;;
20080;SDS011;10200;49.232;9.222;2023-02-15T09:10:52;26.07;;;14.27;;
20080;SDS011;10200;49.232;9.222;2023-02-15T09:13:19;29.63;;;14.07;;
20080;SDS011;10200;49.232;9.222;2023-02-15T09:15:45;22.23;;;13.33;;
20080;SDS011;10200;49.232;9.222;2023-02-15T09:18:11;27.40;;;13.87;;
20080;SDS011;10200;49.232;9.222;2023-02-15T09:20:41;20.10;;;12.90;;
20080;SDS011;10200;49.232;9.222;2023-02-15T09:23:08;20.67;;;13.03;;
20080;SDS011;10200;49.232;9.222;2023-02-15T09:25:33;22.00;;;13.50;;
20080;SDS011;10200;49.232;9.222;2023-02-15T09:27:59;26.80;;;14.00;;
20080;SDS011;10200;49.232;9.222;2023-02-15T09:30:25;22.03;;;13.73;;
20080;SDS011;10200;49.232;9.222;2023-02-15T09:32:50;23.67;;;14.10;;
20080;SDS011;10200;49.232;9.222;2023-02-15T09:35:16;21.20;;;13.10;;
20080;SDS011;10200;49.232;9.222;2023-02-15T09:37:41;26.43;;;14.43;;
20080;SDS011;10200;49.232;9.222;2023-02-15T09:40:07;22.70;;;14.30;;
20080;SDS011;10200;49.232;9.222;2023-02-15T10:01:54;22.00;;;13.50;;
20080;SDS011;10200;49.232;9.222;2023-02-15T10:12:27;25.07;;;15.27;;
20080;SDS011;10200;49.232;9.222;2023-02-15T10:23:16;22.87;;;14.53;;
20080;SDS011;10200;49.232;9.222;2023-02-15T10:26:11;25.27;;;15.40;;
20080;SDS011;10200;49.232;9.222;2023-02-15T10:31:43;25.33;;;15.00;;
20080;SDS011;10200;49.232;9.222;2023-02-15T10:34:28;24.83;;;15.00;;
20080;SDS011;10200;49.232;9.222;2023-02-15T10:43:00;23.80;;;14.03;;
20080;SDS011;10200;49.232;9.222;2023-02-15T10:51:18;25.13;;;15.20;;
20080;SDS011;10200;49.232;9.222;2023-02-15T10:53:55;24.57;;;14.47;;
20080;SDS011;10200;49.232;9.222;2023-02-15T10:56:24;23.93;;;14.63;;
20080;SDS011;10200;49.232;9.222;2023-02-15T11:09:49;20.97;;;13.50;;
20080;SDS011;10200;49.232;9.222;2023-02-15T11:12:27;25.30;;;15.50;;
20080;SDS011;10200;49.232;9.222;2023-02-15T11:17:45;23.10;;;13.97;;
20080;SDS011;10200;49.232;9.222;2023-02-15T11:20:20;20.10;;;13.93;;
20080;SDS011;10200;49.232;9.222;2023-02-15T11:22:52;23.43;;;14.07;;
20080;SDS011;10200;49.232;9.222;2023-02-15T11:25:25;21.30;;;13.97;;
20080;SDS011;10200;49.232;9.222;2023-02-15T11:27:55;23.40;;;14.57;;
20080;SDS011;10200;49.232;9.222;2023-02-15T11:30:23;23.93;;;15.17;;
20080;SDS011;10200;49.232;9.222;2023-02-15T11:32:56;25.00;;;15.13;;
20080;SDS011;10200;49.232;9.222;2023-02-15T11:35:34;22.20;;;14.57;;
20080;SDS011;10200;49.232;9.222;2023-02-15T11:38:22;23.63;;;14.83;;
20080;SDS011;10200;49.232;9.222;2023-02-15T11:41:02;23.70;;;14.23;;
20080;SDS011;10200;49.232;9.222;2023-02-15T11:46:10;21.13;;;14.10;;
20080;SDS011;10200;49.232;9.222;2023-02-15T11:48:37;20.80;;;13.43;;
20080;SDS011;10200;49.232;9.222;2023-02-15T11:51:03;20.23;;;13.67;;
20080;SDS011;10200;49.232;9.222;2023-02-15T11:53:32;18.63;;;12.43;;
20080;SDS011;10200;49.232;9.222;2023-02-15T11:56:01;22.73;;;13.23;;
20080;SDS011;10200;49.232;9.222;2023-02-15T12:00:56;22.60;;;14.07;;
20080;SDS011;10200;49.232;9.222;2023-02-15T12:03:39;20.50;;;13.97;;
20080;SDS011;10200;49.232;9.222;2023-02-15T12:06:32;19.63;;;13.00;;
20080;SDS011;10200;49.232;9.222;2023-02-15T12:11:50;23.07;;;13.83;;
20080;SDS011;10200;49.232;9.222;2023-02-15T12:14:15;23.03;;;13.57;;
20080;SDS011;10200;49.232;9.222;2023-02-15T12:16:45;19.80;;;13.47;;
20080;SDS011;10200;49.232;9.222;2023-02-15T12:19:22;21.10;;;13.30;;
20080;SDS011;10200;49.232;9.222;2023-02-15T12:21:51;22.23;;;14.37;;
20080;SDS011;10200;49.232;9.222;2023-02-15T12:24:20;20.33;;;13.90;;
20080;SDS011;10200;49.232;9.222;2023-02-15T12:27:02;23.60;;;13.77;;
20080;SDS011;10200;49.232;9.222;2023-02-15T12:29:35;17.73;;;12.17;;
20080;SDS011;10200;49.232;9.222;2023-02-15T12:32:05;19.33;;;12.93;;
20080;SDS011;10200;49.232;9.222;2023-02-15T12:34:37;18.17;;;13.03;;
20080;SDS011;10200;49.232;9.222;2023-02-15T12:37:10;27.27;;;14.47;;
20080;SDS011;10200;49.232;9.222;2023-02-15T12:39:55;22.00;;;13.87;;
20080;SDS011;10200;49.232;9.222;2023-02-15T12:42:23;21.33;;;14.23;;
20080;SDS011;10200;49.232;9.222;2023-02-15T12:47:44;20.80;;;13.93;;
20080;SDS011;10200;49.232;9.222;2023-02-15T12:52:47;21.57;;;14.13;;
20080;SDS011;10200;49.232;9.222;2023-02-15T12:55:24;20.90;;;14.63;;
20080;SDS011;10200;49.232;9.222;2023-02-15T12:58:07;19.37;;;13.53;;
20080;SDS011;10200;49.232;9.222;2023-02-15T13:00:41;21.85;;;15.25;;
20080;SDS011;10200;49.232;9.222;2023-02-15T13:03:14;22.03;;;14.60;;
20080;SDS011;10200;49.232;9.222;2023-02-15T13:05:46;19.83;;;13.23;;
20080;SDS011;10200;49.232;9.222;2023-02-15T13:08:16;20.40;;;13.97;;
20080;SDS011;10200;49.232;9.222;2023-02-15T13:13:28;19.83;;;13.53;;
20080;SDS011;10200;49.232;9.222;2023-02-15T13:16:02;19.67;;;13.07;;
20080;SDS011;10200;49.232;9.222;2023-02-15T13:18:36;21.70;;;14.43;;
20080;SDS011;10200;49.232;9.222;2023-02-15T13:21:19;22.27;;;14.60;;
20080;SDS011;10200;49.232;9.222;2023-02-15T13:23:52;20.37;;;13.27;;
20080;SDS011;10200;49.232;9.222;2023-02-15T13:26:22;21.70;;;14.40;;
20080;SDS011;10200;49.232;9.222;2023-02-15T13:28:55;23.73;;;13.50;;
20080;SDS011;10200;49.232;9.222;2023-02-15T13:31:25;21.30;;;13.57;;
20080;SDS011;10200;49.232;9.222;2023-02-15T13:33:55;20.93;;;13.87;;
20080;SDS011;10200;49.232;9.222;2023-02-15T13:36:40;19.70;;;13.13;;
20080;SDS011;10200;49.232;9.222;2023-02-15T13:41:56;18.97;;;12.93;;
20080;SDS011;10200;49.232;9.222;2023-02-15T13:47:34;23.00;;;13.60;;
20080;SDS011;10200;49.232;9.222;2023-02-15T13:52:59;20.00;;;13.00;;
20080;SDS011;10200;49.232;9.222;2023-02-15T13:55:33;19.60;;;13.00;;
20080;SDS011;10200;49.232;9.222;2023-02-15T14:03:40;22.00;;;14.17;;
20080;SDS011;10200;49.232;9.222;2023-02-15T14:26:06;22.00;;;13.87;;
20080;SDS011;10200;49.232;9.222;2023-02-15T14:28:59;19.57;;;13.07;;
20080;SDS011;10200;49.232;9.222;2023-02-15T14:31:30;18.67;;;12.50;;
20080;SDS011;10200;49.232;9.222;2023-02-15T14:33:59;16.93;;;11.70;;
20080;SDS011;10200;49.232;9.222;2023-02-15T14:36:25;19.17;;;12.37;;
20080;SDS011;10200;49.232;9.222;2023-02-15T14:42:02;20.70;;;13.57;;
20080;SDS011;10200;49.232;9.222;2023-02-15T14:44:41;19.20;;;13.13;;
20080;SDS011;10200;49.232;9.222;2023-02-15T14:47:16;16.37;;;12.20;;
20080;SDS011;10200;49.232;9.222;2023-02-15T14:49:47;17.00;;;11.60;;
20080;SDS011;10200;49.232;9.222;2023-02-15T14:52:12;15.60;;;11.17;;
20080;SDS011;10200;49.232;9.222;2023-02-15T15:07:35;21.37;;;13.00;;
20080;SDS011;10200;49.232;9.222;2023-02-15T15:10:46;20.10;;;13.27;;
20080;SDS011;10200;49.232;9.222;2023-02-15T15:15:56;18.40;;;12.83;;
20080;SDS011;10200;49.232;9.222;2023-02-15T15:18:43;17.03;;;12.07;;
20080;SDS011;10200;49.232;9.222;2023-02-15T15:21:13;20.27;;;12.90;;
20080;SDS011;10200;49.232;9.222;2023-02-15T15:30:01;18.03;;;12.43;;
20080;SDS011;10200;49.232;9.222;2023-02-15T15:32:50;20.57;;;13.20;;
20080;SDS011;10200;49.232;9.222;2023-02-15T15:49:58;17.97;;;11.77;;
20080;SDS011;10200;49.232;9.222;2023-02-15T15:52:25;17.70;;;12.00;;
20080;SDS011;10200;49.232;9.222;2023-02-15T15:54:56;20.37;;;13.37;;
20080;SDS011;10200;49.232;9.222;2023-02-15T16:00:00;19.13;;;13.13;;
20080;SDS011;10200;49.232;9.222;2023-02-15T16:02:26;17.90;;;11.27;;
20080;SDS011;10200;49.232;9.222;2023-02-15T16:04:52;17.50;;;11.00;;
20080;SDS011;10200;49.232;9.222;2023-02-15T16:09:57;18.07;;;12.13;;
20080;SDS011;10200;49.232;9.222;2023-02-15T16:12:29;16.97;;;11.57;;
20080;SDS011;10200;49.232;9.222;2023-02-15T16:14:57;17.40;;;11.63;;
20080;SDS011;10200;49.232;9.222;2023-02-15T16:17:27;17.53;;;11.93;;
20080;SDS011;10200;49.232;9.222;2023-02-15T16:20:06;15.23;;;10.37;;
20080;SDS011;10200;49.232;9.222;2023-02-15T16:22:40;17.33;;;11.80;;
20080;SDS011;10200;49.232;9.222;2023-02-15T16:27:46;18.73;;;13.13;;
20080;SDS011;10200;49.232;9.222;2023-02-15T16:33:18;28.77;;;16.03;;
20080;SDS011;10200;49.232;9.222;2023-02-15T16:35:57;29.73;;;16.40;;
20080;SDS011;10200;49.232;9.222;2023-02-15T16:38:38;25.63;;;16.63;;
20080;SDS011;10200;49.232;9.222;2023-02-15T16:41:13;22.50;;;14.47;;
20080;SDS011;10200;49.232;9.222;2023-02-15T16:43:41;22.57;;;15.37;;
20080;SDS011;10200;49.232;9.222;2023-02-15T16:46:10;23.73;;;14.93;;
20080;SDS011;10200;49.232;9.222;2023-02-15T16:48:44;20.63;;;13.60;;
20080;SDS011;10200;49.232;9.222;2023-02-15T16:51:26;24.70;;;15.73;;
20080;SDS011;10200;49.232;9.222;2023-02-15T16:53:54;23.30;;;15.17;;
20080;SDS011;10200;49.232;9.222;2023-02-15T16:56:31;20.70;;;14.13;;
20080;SDS011;10200;49.232;9.222;2023-02-15T16:58:57;21.97;;;13.83;;
20080;SDS011;10200;49.232;9.222;2023-02-15T17:01:25;21.43;;;13.80;;
20080;SDS011;10200;49.232;9.222;2023-02-15T17:04:10;20.73;;;14.33;;
20080;SDS011;10200;49.232;9.222;2023-02-15T17:06:38;19.23;;;13.43;;
20080;SDS011;10200;49.232;9.222;2023-02-15T17:09:05;26.87;;;14.93;;
20080;SDS011;10200;49.232;9.222;2023-02-15T17:11:41;22.20;;;14.63;;
20080;SDS011;10200;49.232;9.222;2023-02-15T17:16:47;25.70;;;17.10;;
20080;SDS011;10200;49.232;9.222;2023-02-15T17:19:16;29.73;;;18.20;;
20080;SDS011;10200;49.232;9.222;2023-02-15T17:21:46;30.47;;;17.70;;
20080;SDS011;10200;49.232;9.222;2023-02-15T17:24:25;30.57;;;16.53;;
20080;SDS011;10200;49.232;9.222;2023-02-15T17:27:00;26.13;;;15.97;;
20080;SDS011;10200;49.232;9.222;2023-02-15T17:29:37;29.63;;;15.27;;
20080;SDS011;10200;49.232;9.222;2023-02-15T17:32:10;24.93;;;15.57;;
20080;SDS011;10200;49.232;9.222;2023-02-15T17:35:29;22.97;;;15.43;;
20080;SDS011;10200;49.232;9.222;2023-02-15T17:37:48;27.33;;;16.33;;
20080;SDS011;10200;49.232;9.222;2023-02-15T17:40:19;27.90;;;16.03;;
20080;SDS011;10200;49.232;9.222;2023-02-15T17:42:54;27.53;;;17.87;;
20080;SDS011;10200;49.232;9.222;2023-02-15T17:45:20;31.00;;;16.70;;
20080;SDS011;10200;49.232;9.222;2023-02-15T17:47:49;28.90;;;15.67;;
20080;SDS011;10200;49.232;9.222;2023-02-15T17:50:17;25.37;;;16.80;;
20080;SDS011;10200;49.232;9.222;2023-02-15T17:52:49;27.37;;;15.97;;
20080;SDS011;10200;49.232;9.222;2023-02-15T17:55:17;26.07;;;15.20;;
20080;SDS011;10200;49.232;9.222;2023-02-15T17:58:00;31.20;;;16.33;;
20080;SDS011;10200;49.232;9.222;2023-02-15T18:00:27;24.47;;;14.87;;
20080;SDS011;10200;49.232;9.222;2023-02-15T18:03:13;21.67;;;15.07;;
20080;SDS011;10200;49.232;9.222;2023-02-15T18:05:57;26.33;;;15.23;;